Latest Weather Observations for kunanyi / Mount Wellington

IDT60801

Issued at 8:01 pm EST Wednesday 18 May 2022 (issued every 10 minutes, with the page automatically refreshed every 10 minutes)

About weather observations | Map of weather stations | Latest weather observations for TAS | Other Formats
Station Details ID: 094087 Name: KUNANYI (MOUNT WELLINGTON PINNACLE) Lat: -42.90 Lon: 147.24 Height: 1260.47 m
Data from the previous 72 hours. | See also: Recent months at kunanyi / Mount Wellington
Date/Time
EST
Temp
°C
App
Temp
°C
Dew
Point
°C
Rel
Hum
%
Delta-T
°C
Wind Press
QNH
hPa
Press
MSL
hPa
Rain since
9am
mm
Dir  Spd
km/h
Gust
km/h
Spd
kts
Gust
kts
18/08:00pm -0.4 -14.8 -0.4 100 0.0 WSW 65 78 35 42 - - 0.4
18/07:39pm -0.6 -15.0 -0.6 100 0.0 WSW 65 83 35 45 - - 0.4
18/07:30pm -0.6 -14.6 -0.6 100 0.0 WSW 63 76 34 41 - - 0.4
18/07:00pm -0.6 -15.4 -0.6 100 0.0 WSW 67 82 36 44 - - 0.4
18/06:48pm -0.6 -15.8 -0.6 100 0.0 WSW 69 89 37 48 - - 0.4
18/06:38pm -0.6 -14.6 -0.6 100 0.0 WSW 63 85 34 46 - - 0.4
18/06:31pm -0.4 -12.3 -0.4 100 0.0 WSW 52 70 28 38 - - 0.4
18/06:30pm -0.4 -12.3 -0.4 100 0.0 WSW 52 61 28 33 - - 0.4
18/06:00pm -0.5 -12.1 -0.5 100 0.0 WSW 50 69 27 37 - - 0.4
18/05:30pm -0.6 -14.3 -0.6 100 0.0 WSW 61 76 33 41 - - 0.4
18/05:17pm -0.4 -12.3 -0.4 100 0.0 WSW 52 72 28 39 - - 0.4
18/05:00pm -0.4 -12.3 -0.4 100 0.0 WSW 52 65 28 35 - - 0.4
18/04:43pm -0.4 -13.1 -0.4 100 0.0 WSW 56 74 30 40 - - 0.4
18/04:30pm -0.3 -12.6 -0.3 100 0.0 WSW 54 65 29 35 - - 0.4
18/04:17pm -0.2 -11.3 -0.2 100 0.0 WSW 48 69 26 37 - - 0.4
18/04:00pm -0.2 -11.3 -0.2 100 0.0 WSW 48 65 26 35 - - 0.4
18/03:31pm -0.3 -14.3 -0.3 100 0.0 WSW 63 82 34 44 - - 0.4
18/03:30pm -0.3 -14.7 -0.3 100 0.0 WSW 65 82 35 44 - - 0.4
18/03:00pm -0.3 -15.1 -0.3 100 0.0 WSW 67 89 36 48 - - 0.4
18/02:58pm -0.3 -14.7 -0.3 100 0.0 WSW 65 89 35 48 - - 0.4
18/02:51pm -0.3 -14.3 -0.3 100 0.0 WSW 63 85 34 46 - - 0.4
18/02:30pm -0.3 -16.8 -0.3 100 0.0 WSW 76 106 41 57 - - 0.4
18/02:00pm 0.0 -15.1 0.0 100 0.0 WSW 69 98 37 53 - - 0.4
18/01:30pm 0.1 -15.2 0.1 100 0.0 WSW 70 89 38 48 - - 0.4
18/01:02pm 0.1 -17.1 0.1 100 0.0 WSW 80 100 43 54 - - 0.4
18/01:00pm 0.1 -17.1 0.1 100 0.0 WSW 80 95 43 51 - - 0.4
18/12:30pm 0.0 -16.0 0.0 100 0.0 WSW 74 96 40 52 - - 0.4
18/12:05pm 0.1 -15.0 0.1 100 0.0 WSW 69 87 37 47 - - 0.4
18/12:00pm 0.1 -14.2 0.1 100 0.0 SW 65 80 35 43 - - 0.4
18/11:48am 0.2 -12.6 0.2 100 0.0 WSW 57 82 31 44 - - 0.4
18/11:30am 0.2 -12.4 0.2 100 0.0 WSW 56 72 30 39 - - 0.2
18/11:00am 0.0 -13.2 0.0 100 0.0 WSW 59 80 32 43 - - 0.2
18/10:30am 0.0 -12.2 0.0 100 0.0 WSW 54 69 29 37 - - 0.0
18/10:00am -0.2 -13.0 -0.2 100 0.0 WSW 57 82 31 44 - - 0.0
18/09:30am -0.4 -15.2 -0.4 100 0.0 WSW 67 89 36 48 - - 0.0
18/09:00am -0.4 -13.3 -0.4 100 0.0 WSW 57 78 31 42 - - 0.4
18/08:31am -0.5 -12.8 -0.5 100 0.0 W 54 74 29 40 - - 0.4
18/08:30am -0.5 -12.8 -0.5 100 0.0 W 54 74 29 40 - - 0.4
18/08:29am -0.5 -12.8 -0.5 100 0.0 W 54 74 29 40 - - 0.4
18/08:00am -0.6 -15.8 -0.6 100 0.0 W 69 100 37 54 - - 0.4
18/07:30am -0.6 -17.9 -0.7 99 0.0 W 80 106 43 57 - - 0.4
18/07:22am -0.7 -16.8 -0.7 100 0.0 W 74 102 40 55 - - 0.4
18/07:00am -1.1 -14.8 -1.1 100 0.0 W 61 83 33 45 - - 0.4
18/06:30am -1.0 -16.8 -1.0 100 0.0 W 72 93 39 50 - - 0.4
18/06:00am -1.0 -17.6 -1.0 100 0.0 W 76 102 41 55 - - 0.4
18/05:30am -1.0 -18.0 -1.3 98 0.1 W 78 106 42 57 - - 0.4
18/05:00am -1.2 -14.9 -1.2 100 0.0 W 61 87 33 47 - - 0.4
18/04:30am -1.3 -15.1 -1.3 100 0.0 W 61 83 33 45 - - 0.2
18/04:00am -1.2 -14.6 -1.2 100 0.0 W 59 85 32 46 - - 0.2
18/03:30am -1.4 -16.9 -1.4 100 0.0 W 70 98 38 53 - - 0.2
18/03:00am -1.6 -16.6 -1.9 98 0.0 W 67 91 36 49 - - 0.2
18/02:30am -1.2 -16.1 -1.2 100 0.0 W 67 87 36 47 - - 0.2
18/02:00am -1.3 -16.6 -1.3 100 0.0 W 69 95 37 51 - - 0.2
18/01:35am -1.0 -14.0 -1.0 100 0.0 W 57 78 31 42 - - 0.2
18/01:30am -0.9 -13.8 -0.9 100 0.0 W 57 72 31 39 - - 0.2
18/01:00am -1.1 -14.1 -1.1 100 0.0 W 57 78 31 42 - - 0.2
18/12:30am -1.3 -14.3 -1.3 100 0.0 W 57 82 31 44 - - 0.2
18/12:00am -1.6 -15.0 -1.6 100 0.0 W 59 89 32 48 - - 0.2
 
Date/Time
EST
Temp
°C
App
Temp
°C
Dew
Point
°C
Rel
Hum
%
Delta-T
°C
Wind Press
QNH
hPa
Press
MSL
hPa
Rain since
9am
mm
Dir  Spd
km/h
Gust
km/h
Spd
kts
Gust
kts
17/11:49pm -1.1 -14.1 -1.1 100 0.0 W 57 82 31 44 - - 0.2
17/11:48pm -1.0 -13.8 -1.0 100 0.0 W 56 82 30 44 - - 0.2
17/11:30pm -0.8 -11.6 -0.8 100 0.0 WNW 46 56 25 30 - - 0.2
17/11:00pm -0.6 -14.3 -0.6 100 0.0 W 61 83 33 45 - - 0.2
17/10:47pm -0.8 -13.7 -0.8 100 0.0 W 57 83 31 45 - - 0.2
17/10:30pm -0.8 -14.1 -0.8 100 0.0 W 59 74 32 40 - - 0.2
17/10:24pm -0.8 -13.5 -0.8 100 0.0 W 56 74 30 40 - - 0.2
17/10:00pm -0.8 -14.1 -0.8 100 0.0 WNW 59 72 32 39 - - 0.2
17/09:38pm -0.7 -12.3 -0.7 100 0.0 WNW 50 69 27 37 - - 0.2
17/09:30pm -0.6 -12.5 -0.6 100 0.0 WNW 52 67 28 36 - - 0.2
17/09:00pm -0.5 -11.7 -0.5 100 0.0 W 48 67 26 36 - - 0.2
17/08:31pm -0.4 -12.3 -0.4 100 0.0 W 52 72 28 39 - - 0.2
17/08:30pm -0.4 -12.7 -0.4 100 0.0 W 54 72 29 39 - - 0.2
17/08:00pm -0.4 -12.3 -0.4 100 0.0 WNW 52 67 28 36 - - 0.2
17/07:30pm -0.2 -13.4 -0.2 100 0.0 WNW 59 72 32 39 - - 0.2
17/07:00pm -0.1 -12.7 -0.1 100 0.0 WNW 56 70 30 38 - - 0.2
17/06:30pm 0.0 -14.0 0.0 100 0.0 WNW 63 82 34 44 - - 0.2
17/06:00pm 0.1 -12.1 0.1 100 0.0 WNW 54 76 29 41 - - 0.2
17/05:46pm 0.1 -11.0 0.1 100 0.0 WNW 48 69 26 37 - - 0.2
17/05:30pm 0.3 -9.8 0.3 100 0.0 NW 43 54 23 29 - - 0.2
17/05:00pm 0.7 -9.5 0.7 100 0.0 NW 44 65 24 35 - - 0.0
17/04:34pm 0.4 -9.7 0.4 100 0.0 WNW 43 63 23 34 - - 0.0
17/04:30pm 0.6 -9.7 0.6 100 0.0 WNW 44 63 24 34 - - 0.0
17/04:13pm 0.6 -10.4 0.6 100 0.0 WNW 48 69 26 37 - - 0.0
17/04:00pm 0.6 -9.5 0.6 100 0.0 WNW 43 59 23 32 - - 0.0
17/03:39pm 0.6 -9.7 0.6 100 0.0 WNW 44 65 24 35 - - 0.0
17/03:30pm 0.6 -10.4 0.6 100 0.0 WNW 48 65 26 35 - - 0.0
17/03:00pm 0.5 -10.9 0.5 100 0.0 WNW 50 69 27 37 - - 0.0
17/02:30pm 0.5 -12.2 0.5 100 0.0 WNW 57 83 31 45 - - 0.0
17/02:00pm 0.4 -12.2 0.4 100 0.0 W 56 89 30 48 - - 0.0
17/01:30pm 0.0 -15.1 0.0 100 0.0 W 69 104 37 56 - - 0.0
17/01:22pm 0.0 -14.7 0.0 100 0.0 W 67 104 36 56 - - 0.0
17/01:00pm 0.0 -13.6 0.0 100 0.0 W 61 85 33 46 - - 0.0
17/12:30pm 0.0 -15.7 0.0 100 0.0 W 72 91 39 49 - - 0.0
17/12:00pm 0.0 -16.4 0.0 100 0.0 W 76 98 41 53 - - 0.0
17/11:30am 0.0 -16.0 0.0 100 0.0 W 74 96 40 52 - - 0.0
17/11:00am 0.0 -14.7 0.0 100 0.0 W 67 89 36 48 - - 0.0
17/10:30am 0.0 -15.1 0.0 100 0.0 W 69 91 37 49 - - 0.0
17/10:00am -0.1 -15.4 -0.1 100 0.0 W 70 93 38 50 - - 0.0
17/09:30am -0.2 -13.8 -0.2 100 0.0 W 61 87 33 47 - - 0.0
17/09:13am -0.2 -11.7 -0.2 100 0.0 W 50 76 27 41 - - 0.0
17/09:00am -0.2 -12.1 -0.2 100 0.0 W 52 67 28 36 - - 1.8
17/08:30am -0.6 -12.5 -0.6 100 0.0 W 52 70 28 38 - - 1.8
17/08:05am -0.3 -13.2 -0.3 100 0.0 WNW 57 78 31 42 - - 1.8
17/08:00am -0.3 -13.2 -0.3 100 0.0 WNW 57 76 31 41 - - 1.8
17/07:37am -0.3 -12.6 -0.3 100 0.0 WNW 54 78 29 42 - - 1.8
17/07:35am -0.4 -12.3 -0.4 100 0.0 WNW 52 78 28 42 - - 1.8
17/07:30am -0.4 -10.8 -0.4 100 0.0 WNW 44 63 24 34 - - 1.8
17/07:09am -0.3 -10.1 -0.3 100 0.0 WNW 41 61 22 33 - - 1.8
17/07:00am -0.3 -10.5 -0.3 100 0.0 WNW 43 56 23 30 - - 1.8
17/06:38am -0.4 -11.6 -0.4 100 0.0 WNW 48 69 26 37 - - 1.8
17/06:30am -0.4 -11.6 -0.4 100 0.0 WNW 48 63 26 34 - - 1.8
17/06:00am -0.5 -11.3 -0.5 100 0.0 WNW 46 69 25 37 - - 1.8
17/05:38am -0.5 -10.7 -0.5 100 0.0 WNW 43 61 23 33 - - 1.8
17/05:30am -0.7 -11.1 -0.7 100 0.0 WNW 44 56 24 30 - - 1.8
17/05:00am -0.6 -11.0 -0.6 100 0.0 WNW 44 54 24 29 - - 1.8
17/04:37am -0.7 -12.3 -0.7 100 0.0 WNW 50 76 27 41 - - 1.8
17/04:30am -0.6 -11.8 -0.6 100 0.0 WNW 48 63 26 34 - - 1.8
17/04:00am -0.8 -10.7 -0.8 100 0.0 WNW 41 54 22 29 - - 1.8
17/03:30am -0.8 -11.3 -0.8 100 0.0 WNW 44 59 24 32 - - 1.8
17/03:00am -1.2 -9.6 -1.2 100 0.0 WNW 33 52 18 28 - - 1.8
17/02:39am -1.4 -11.9 -1.4 100 0.0 WNW 44 63 24 34 - - 1.8
17/02:30am -1.2 -12.1 -1.2 100 0.0 WNW 46 63 25 34 - - 1.8
17/02:00am -1.4 -11.4 -1.4 100 0.0 WNW 41 63 22 34 - - 1.8
17/01:43am -1.3 -12.2 -1.3 100 0.0 WNW 46 65 25 35 - - 1.8
17/01:30am -1.5 -12.1 -1.5 100 0.0 WNW 44 56 24 30 - - 1.8
17/01:05am -1.5 -11.5 -1.5 100 0.0 WNW 41 59 22 32 - - 1.8
17/01:00am -1.5 -12.1 -1.5 100 0.0 WNW 44 59 24 32 - - 1.8
17/12:38am -1.6 -11.2 -1.6 100 0.0 WNW 39 67 21 36 - - 1.8
17/12:30am -1.6 -11.6 -1.6 100 0.0 WNW 41 54 22 29 - - 1.8
17/12:00am -1.6 -12.2 -1.6 100 0.0 WNW 44 57 24 31 - - 1.8
 
Date/Time
EST
Temp
°C
App
Temp
°C
Dew
Point
°C
Rel
Hum
%
Delta-T
°C
Wind Press
QNH
hPa
Press
MSL
hPa
Rain since
9am
mm
Dir  Spd
km/h
Gust
km/h
Spd
kts
Gust
kts
16/11:38pm -1.6 -12.9 -1.6 100 0.0 WNW 48 67 26 36 - - 1.8
16/11:30pm -1.6 -12.5 -1.6 100 0.0 WNW 46 61 25 33 - - 1.8
16/11:13pm -1.8 -12.4 -1.8 100 0.0 WNW 44 65 24 35 - - 1.8
16/11:00pm -1.7 -12.3 -1.7 100 0.0 WNW 44 61 24 33 - - 1.8
16/10:47pm -1.9 -14.0 -1.9 100 0.0 WNW 52 70 28 38 - - 1.8
16/10:30pm -2.2 -15.1 -2.2 100 0.0 WNW 56 70 30 38 - - 1.8
16/10:09pm -2.1 -14.3 -2.1 100 0.0 WNW 52 72 28 39 - - 1.6
16/10:00pm -1.8 -13.2 -1.8 100 0.0 WNW 48 61 26 33 - - 1.6
16/09:56pm -1.6 -12.0 -1.6 100 0.0 WNW 43 61 23 33 - - 1.6
16/09:51pm -1.6 -10.5 -1.6 100 0.0 WNW 35 52 19 28 - - 1.6
16/09:30pm -1.5 -8.6 -1.5 100 0.0 WNW 26 32 14 17 - - 1.6
16/09:00pm -1.6 -12.0 -1.6 100 0.0 WNW 43 54 23 29 - - 1.6
16/08:30pm -1.7 -13.8 -1.7 100 0.0 WNW 52 63 28 34 - - 1.6
16/08:09pm -1.7 -12.1 -1.7 100 0.0 WNW 43 65 23 35 - - 1.6
16/08:00pm -1.6 -10.5 -1.6 100 0.0 WNW 35 48 19 26 - - 1.6
16/07:30pm -1.4 -10.2 -1.4 100 0.0 WNW 35 44 19 24 - - 1.6
16/07:00pm -1.8 -11.1 -1.8 100 0.0 WNW 37 48 20 26 - - 1.6
16/06:30pm -1.6 -12.0 -1.6 100 0.0 WNW 43 57 23 31 - - 1.6
16/06:24pm -1.7 -10.0 -1.7 100 0.0 WNW 32 52 17 28 - - 1.6
16/06:00pm -1.4 -8.9 -1.4 100 0.0 WNW 28 35 15 19 - - 1.2
16/05:30pm -1.7 -12.1 -1.7 100 0.0 WNW 43 56 23 30 - - 1.2
16/05:00pm -1.7 -13.4 -1.7 100 0.0 WNW 50 65 27 35 - - 1.2
16/04:41pm -1.6 -11.6 -1.6 100 0.0 WNW 41 61 22 33 - - 1.2
16/04:30pm -1.4 -11.0 -1.4 100 0.0 WNW 39 50 21 27 - - 1.2
16/04:00pm -1.3 -8.0 -1.3 100 0.0 WNW 24 35 13 19 - - 1.0
16/03:30pm -0.7 -7.3 -0.7 100 0.0 WNW 24 30 13 16 - - 0.6
16/03:00pm -0.8 -10.7 -0.8 100 0.0 WNW 41 57 22 31 - - 0.4
16/02:45pm -0.8 -10.7 -0.8 100 0.0 WNW 41 59 22 32 - - 0.4
16/02:30pm -0.9 -11.4 -0.9 100 0.0 WNW 44 59 24 32 - - 0.4
16/02:00pm -0.9 -11.8 -0.9 100 0.0 WNW 46 57 25 31 - - 0.4
16/01:38pm -0.3 -7.6 -0.3 100 0.0 WNW 28 48 15 26 - - 0.4
16/01:30pm -0.2 -7.2 -0.2 100 0.0 WNW 26 35 14 19 - - 0.4
16/01:00pm -0.3 -8.4 -0.3 100 0.0 WNW 32 52 17 28 - - 0.4
16/12:58pm -0.2 -8.3 -0.2 100 0.0 WNW 32 52 17 28 - - 0.4
16/12:30pm -0.6 -9.3 -0.6 100 0.0 WNW 35 43 19 23 - - 0.4
16/12:00pm -0.7 -9.4 -0.7 100 0.0 WNW 35 46 19 25 - - 0.4
16/11:30am -0.9 -12.1 -0.9 100 0.0 WNW 48 61 26 33 - - 0.4
16/11:00am -1.0 -12.2 -1.0 100 0.0 WNW 48 61 26 33 - - 0.4
16/10:30am -0.8 -11.6 -0.8 100 0.0 WNW 46 63 25 34 - - 0.4
16/10:23am -1.0 -11.3 -1.0 100 0.0 WNW 43 63 23 34 - - 0.4
16/10:00am -0.8 -10.7 -0.8 100 0.0 WNW 41 56 22 30 - - 0.2
16/09:30am -0.6 -9.3 -0.6 100 0.0 WNW 35 44 19 24 - - 0.0
16/09:00am -0.7 -9.4 -0.7 100 0.0 WNW 35 50 19 27 - - 7.4
16/08:30am -0.6 -9.3 -0.6 100 0.0 WNW 35 50 19 27 - - 7.4
16/08:02am -0.7 -11.1 -0.7 100 0.0 WNW 44 65 24 35 - - 7.4
16/08:00am -0.7 -11.5 -0.7 100 0.0 WNW 46 65 25 35 - - 7.4
16/07:49am -0.8 -11.6 -0.8 100 0.0 WNW 46 69 25 37 - - 7.4
16/07:30am -0.7 -11.0 -0.7 100 0.0 WNW 43 56 23 30 - - 7.4
16/07:00am -0.7 -11.0 -0.7 100 0.0 WNW 43 56 23 30 - - 7.4
16/06:30am -0.7 -11.0 -0.7 100 0.0 WNW 43 56 23 30 - - 7.4
16/06:00am -0.6 -11.8 -0.6 100 0.0 WNW 48 61 26 33 - - 7.4
16/05:30am -0.8 -12.8 -0.8 100 0.0 NW 52 78 28 42 - - 7.4
16/05:11am -0.8 -13.2 -0.8 100 0.0 NW 54 74 29 40 - - 7.4
16/05:00am -0.8 -14.1 -0.8 100 0.0 WNW 59 72 32 39 - - 7.4
16/04:33am -1.0 -12.6 -1.0 100 0.0 WNW 50 72 27 39 - - 7.4
16/04:30am -1.0 -11.9 -1.0 100 0.0 WNW 46 61 25 33 - - 7.2
16/04:25am -0.8 -11.3 -0.8 100 0.0 WNW 44 63 24 34 - - 7.2
16/04:00am -0.5 -12.8 -0.5 100 0.0 WNW 54 69 29 37 - - 7.2
16/03:30am -0.5 -14.5 -0.5 100 0.0 WNW 63 83 34 45 - - 7.2
16/03:00am -0.3 -14.7 -0.3 100 0.0 WNW 65 89 35 48 - - 7.2
16/02:30am -0.2 -14.9 -0.2 100 0.0 WNW 67 87 36 47 - - 7.2
16/02:00am -0.3 -15.6 -0.3 100 0.0 WNW 70 95 38 51 - - 7.2
16/01:30am 0.2 -13.7 0.2 100 0.0 WNW 63 83 34 45 - - 7.2
16/01:00am 0.2 -13.0 0.2 100 0.0 WNW 59 85 32 46 - - 7.2
16/12:30am 1.7 -11.2 1.7 100 0.0 WNW 59 85 32 46 - - 6.6
16/12:00am 2.2 -11.0 2.2 100 0.0 WNW 61 87 33 47 - - 6.6
 
Date/Time
EST
Temp
°C
App
Temp
°C
Dew
Point
°C
Rel
Hum
%
Delta-T
°C
Wind Press
QNH
hPa
Press
MSL
hPa
Rain since
9am
mm
Dir  Spd
km/h
Gust
km/h
Spd
kts
Gust
kts
15/11:30pm 2.3 -12.1 2.3 100 0.0 NW 67 93 36 50 - - 6.6
15/11:01pm 2.4 -10.4 2.4 100 0.0 NW 59 78 32 42 - - 6.6
15/11:00pm 2.5 -10.3 2.5 100 0.0 NW 59 76 32 41 - - 6.4
15/10:41pm 3.0 -8.0 3.0 100 0.0 NW 50 70 27 38 - - 6.2
15/10:30pm 3.0 -7.6 3.0 100 0.0 NW 48 67 26 36 - - 5.8
15/10:00pm 2.8 -7.1 2.8 100 0.0 NW 44 57 24 31 - - 5.8
15/09:30pm 2.5 -8.6 2.5 100 0.0 NW 50 69 27 37 - - 5.6
15/09:03pm 2.3 -11.3 2.3 100 0.0 NW 63 83 34 45 - - 5.6
15/09:00pm 2.3 -11.7 2.3 100 0.0 NW 65 83 35 45 - - 5.6
15/08:30pm 2.3 -12.1 2.3 100 0.0 NW 67 91 36 49 - - 5.0
15/08:21pm 2.8 -10.7 2.8 100 0.0 NW 63 91 34 49 - - 4.2
15/08:05pm 3.6 -8.1 3.6 100 0.0 NW 54 72 29 39 - - 3.0

Other formats

Comma delimited format used in spreadsheet applications
http://www.bom.gov.au/fwo/IDT60801/IDT60801.95979.axf

JavaScript Object Notation format (JSON) in row-major order
http://www.bom.gov.au/fwo/IDT60801/IDT60801.95979.json

Data quality

Most of these data are generated automatically and are frequently updated. Quality checks on data are not normally performed. It is possible for incorrect values to appear. Refer to information at About Latest Weather Observations and please check the disclaimer before using these data.